createdAt,value
2019-01-14T00:00:56.780Z,2.93
2019-01-14T00:03:24.492Z,1.77
2019-01-14T00:05:52.104Z,2.27
2019-01-14T00:08:19.791Z,3.47
2019-01-14T00:10:47.469Z,2.30
2019-01-14T00:13:15.090Z,2.97
2019-01-14T00:15:42.755Z,2.30
2019-01-14T00:18:10.452Z,2.87
2019-01-14T00:20:38.092Z,2.53
2019-01-14T00:23:05.918Z,2.80
2019-01-14T00:25:33.579Z,3.33
2019-01-14T00:28:01.225Z,4.40
2019-01-14T00:30:28.871Z,2.73
2019-01-14T00:32:56.540Z,2.70
2019-01-14T00:35:24.159Z,2.97
2019-01-14T00:37:51.934Z,3.00
2019-01-14T00:40:19.547Z,4.30
2019-01-14T00:42:47.172Z,2.83
2019-01-14T00:45:15.066Z,3.40
2019-01-14T00:47:42.699Z,3.23
2019-01-14T00:50:11.783Z,3.03
2019-01-14T00:52:39.469Z,3.07
2019-01-14T00:55:07.404Z,2.50
2019-01-14T00:57:35.086Z,3.37
2019-01-14T01:00:05.777Z,3.73
2019-01-14T01:02:33.491Z,3.17
2019-01-14T01:05:01.147Z,3.10
2019-01-14T01:07:28.834Z,2.97
2019-01-14T01:09:56.503Z,3.10
2019-01-14T01:12:24.282Z,3.50
2019-01-14T01:14:52.038Z,3.63
2019-01-14T01:17:19.663Z,3.77
2019-01-14T01:19:47.320Z,3.27
2019-01-14T01:22:15.003Z,3.70
2019-01-14T01:24:42.636Z,3.20
2019-01-14T01:27:10.270Z,3.80
2019-01-14T01:29:37.989Z,3.63
2019-01-14T01:32:05.613Z,3.27
2019-01-14T01:34:33.291Z,4.07
2019-01-14T01:37:00.989Z,3.50
2019-01-14T01:39:28.623Z,3.60
2019-01-14T01:41:56.273Z,3.43
2019-01-14T01:44:23.913Z,3.47
2019-01-14T01:46:51.556Z,3.07
2019-01-14T01:49:19.278Z,3.80
2019-01-14T01:51:46.947Z,3.57
2019-01-14T01:54:14.556Z,4.53
2019-01-14T01:56:42.258Z,3.43
2019-01-14T01:59:09.914Z,3.73
2019-01-14T02:01:37.710Z,3.27
2019-01-14T02:04:05.340Z,3.53
2019-01-14T02:06:39.104Z,3.27
2019-01-14T02:09:04.264Z,3.03
2019-01-14T02:11:31.925Z,3.23
2019-01-14T02:13:59.675Z,3.60
2019-01-14T02:16:27.348Z,3.43
2019-01-14T02:18:55.053Z,4.03
2019-01-14T02:21:22.722Z,3.07
2019-01-14T02:23:50.417Z,3.57
2019-01-14T02:26:18.021Z,3.90
2019-01-14T02:28:45.713Z,4.90
2019-01-14T02:31:13.324Z,4.47
2019-01-14T02:33:40.953Z,3.70
2019-01-14T02:36:08.612Z,3.73
2019-01-14T02:38:36.232Z,3.97
2019-01-14T02:41:04.109Z,3.63
2019-01-14T02:43:31.758Z,3.70
2019-01-14T02:45:59.392Z,3.80
2019-01-14T02:48:27.125Z,4.40
2019-01-14T02:50:54.761Z,3.03
2019-01-14T02:53:22.387Z,3.73
2019-01-14T02:55:50.039Z,3.73
2019-01-14T02:58:17.703Z,4.00
2019-01-14T03:00:45.359Z,4.70
2019-01-14T03:03:13.040Z,3.83
2019-01-14T03:05:40.660Z,3.83
2019-01-14T03:08:08.303Z,3.27
2019-01-14T03:10:35.995Z,4.13
2019-01-14T03:13:03.777Z,4.50
2019-01-14T03:15:31.473Z,3.77
2019-01-14T03:17:59.113Z,3.83
2019-01-14T03:20:26.735Z,4.00
2019-01-14T03:22:54.386Z,3.53
2019-01-14T03:25:22.036Z,3.73
2019-01-14T03:27:49.700Z,3.50
2019-01-14T03:30:19.036Z,3.53
2019-01-14T03:32:46.742Z,4.10
2019-01-14T03:35:14.525Z,3.83
2019-01-14T03:37:42.456Z,3.47
2019-01-14T03:40:12.589Z,3.33
2019-01-14T03:42:40.260Z,3.60
2019-01-14T03:45:09.858Z,3.10
2019-01-14T03:47:37.491Z,4.20
2019-01-14T03:50:08.679Z,4.30
2019-01-14T03:52:36.352Z,3.47
2019-01-14T03:55:05.792Z,4.27
2019-01-14T03:57:33.587Z,3.80
2019-01-14T04:00:01.198Z,5.60
2019-01-14T04:02:28.991Z,4.33
2019-01-14T04:04:56.616Z,4.93
2019-01-14T04:07:24.272Z,3.43
2019-01-14T04:09:51.896Z,3.50
2019-01-14T04:12:19.544Z,4.47
2019-01-14T04:14:47.179Z,3.77
2019-01-14T04:17:14.848Z,3.37
2019-01-14T04:19:42.479Z,3.37
2019-01-14T04:22:10.107Z,3.70
2019-01-14T04:24:37.759Z,3.30
2019-01-14T04:27:05.379Z,3.60
2019-01-14T04:29:33.112Z,3.47
2019-01-14T04:32:00.704Z,4.67
2019-01-14T04:34:28.362Z,3.77
2019-01-14T04:36:56.052Z,3.93
2019-01-14T04:39:24.004Z,3.73
2019-01-14T04:41:51.680Z,3.57
2019-01-14T04:44:19.315Z,3.43
2019-01-14T04:46:46.989Z,3.20
2019-01-14T04:49:14.644Z,3.73
2019-01-14T04:51:42.322Z,4.00
2019-01-14T04:54:10.012Z,3.47
2019-01-14T04:56:37.644Z,3.30
2019-01-14T04:59:05.291Z,3.80
2019-01-14T05:01:32.951Z,3.60
2019-01-14T05:04:00.613Z,3.53
2019-01-14T05:06:28.306Z,4.10
2019-01-14T05:08:55.974Z,3.13
2019-01-14T05:11:23.601Z,3.90
2019-01-14T05:13:51.273Z,3.47
2019-01-14T05:16:18.920Z,3.67
2019-01-14T05:18:46.675Z,3.17
2019-01-14T05:21:14.340Z,3.80
2019-01-14T05:23:42.019Z,3.30
2019-01-14T05:26:09.678Z,3.23
2019-01-14T05:28:37.327Z,2.93
2019-01-14T05:31:04.987Z,3.43
2019-01-14T05:33:32.604Z,3.67
2019-01-14T05:36:00.277Z,3.33
2019-01-14T05:38:27.883Z,3.43
2019-01-14T05:40:55.555Z,3.33
2019-01-14T05:43:23.285Z,3.07
2019-01-14T05:45:50.975Z,3.13
2019-01-14T05:48:18.637Z,3.80
2019-01-14T05:50:46.407Z,5.03
2019-01-14T05:53:14.085Z,2.90
2019-01-14T05:55:41.708Z,3.50
2019-01-14T05:58:09.372Z,2.90
2019-01-14T06:00:41.765Z,3.43
2019-01-14T06:03:09.455Z,3.13
2019-01-14T06:05:37.106Z,3.60
2019-01-14T06:08:04.771Z,4.27
2019-01-14T06:10:32.403Z,3.13
2019-01-14T06:13:00.020Z,3.70
2019-01-14T06:15:27.676Z,3.77
2019-01-14T06:17:55.435Z,2.50
2019-01-14T06:20:25.417Z,4.10
2019-01-14T06:22:53.055Z,2.93
2019-01-14T06:25:20.727Z,3.33
2019-01-14T06:27:48.357Z,3.20
2019-01-14T06:30:18.275Z,3.27
2019-01-14T06:32:45.971Z,2.70
2019-01-14T06:35:13.859Z,2.70
2019-01-14T06:37:41.518Z,2.60
2019-01-14T06:40:10.387Z,3.13
2019-01-14T06:42:38.038Z,3.23
2019-01-14T06:45:06.123Z,2.77
2019-01-14T06:47:33.779Z,4.33
2019-01-14T06:50:01.408Z,2.87
2019-01-14T06:52:29.162Z,2.60
2019-01-14T06:54:56.780Z,3.07
2019-01-14T06:57:24.478Z,2.93
2019-01-14T06:59:52.101Z,2.97
2019-01-14T07:02:19.807Z,2.87
2019-01-14T07:04:47.462Z,3.07
2019-01-14T07:07:15.105Z,3.90
2019-01-14T07:09:42.790Z,3.57
2019-01-14T07:12:10.440Z,3.43
2019-01-14T07:14:38.096Z,4.37
2019-01-14T07:17:05.748Z,2.17
2019-01-14T07:19:33.380Z,2.87
2019-01-14T07:22:01.076Z,2.67
2019-01-14T07:24:28.751Z,3.10
2019-01-14T07:26:56.383Z,2.40
2019-01-14T07:29:24.077Z,2.40
2019-01-14T07:31:51.715Z,2.20
2019-01-14T07:34:19.404Z,2.63
2019-01-14T07:36:47.012Z,2.30
2019-01-14T07:39:14.643Z,2.73
2019-01-14T07:41:42.322Z,2.77
2019-01-14T07:44:09.979Z,2.47
2019-01-14T07:46:37.641Z,2.27
2019-01-14T07:49:05.256Z,2.30
2019-01-14T07:51:32.975Z,2.13
2019-01-14T07:54:00.636Z,2.50
2019-01-14T07:56:28.308Z,1.97
2019-01-14T07:58:56.432Z,2.57
2019-01-14T08:01:24.094Z,2.23
2019-01-14T08:03:51.889Z,1.77
2019-01-14T08:06:19.530Z,2.03
2019-01-14T08:08:47.167Z,1.30
2019-01-14T08:11:14.842Z,1.73
2019-01-14T08:13:42.464Z,1.57
2019-01-14T08:16:10.090Z,1.73
2019-01-14T08:18:37.881Z,1.97
2019-01-14T08:21:05.503Z,1.60
2019-01-14T08:23:33.180Z,1.90
2019-01-14T08:26:00.862Z,1.83
2019-01-14T08:28:28.506Z,1.30
2019-01-14T08:30:56.491Z,1.70
2019-01-14T08:33:24.171Z,1.83
2019-01-14T08:35:51.807Z,1.43
2019-01-14T08:38:21.294Z,1.50
2019-01-14T08:40:48.928Z,1.47
2019-01-14T08:43:16.620Z,1.63
2019-01-14T08:45:44.355Z,1.67
2019-01-14T08:48:12.049Z,1.40
2019-01-14T08:50:39.677Z,1.20
2019-01-14T08:53:07.368Z,1.47
2019-01-14T08:55:35.001Z,1.50
2019-01-14T08:58:02.624Z,1.30
2019-01-14T09:00:30.299Z,1.40
2019-01-14T09:02:57.952Z,1.83
2019-01-14T09:05:25.628Z,2.40
2019-01-14T09:07:53.298Z,1.70
2019-01-14T09:10:23.239Z,1.73
2019-01-14T09:12:50.893Z,1.83
2019-01-14T09:15:18.541Z,1.80
2019-01-14T09:17:46.727Z,1.90
2019-01-14T09:20:16.719Z,1.83
2019-01-14T09:22:44.351Z,1.47
2019-01-14T09:25:12.131Z,1.70
2019-01-14T09:27:39.775Z,1.70
2019-01-14T09:30:14.575Z,1.60
2019-01-14T09:32:43.726Z,1.50
2019-01-14T09:35:11.578Z,1.60
2019-01-14T09:37:39.254Z,2.07
2019-01-14T09:40:08.844Z,1.53
2019-01-14T09:42:36.476Z,1.53
2019-01-14T09:45:04.836Z,1.53
2019-01-14T09:47:32.492Z,1.90
2019-01-14T09:50:00.643Z,1.33
2019-01-14T09:52:28.527Z,2.00
2019-01-14T09:54:56.439Z,2.13
2019-01-14T09:57:24.123Z,1.47
2019-01-14T09:59:51.783Z,1.93
2019-01-14T10:02:19.443Z,2.03
2019-01-14T10:04:47.100Z,2.53
2019-01-14T10:07:14.868Z,1.80
2019-01-14T10:09:42.499Z,1.80
2019-01-14T10:12:10.281Z,1.93
2019-01-14T10:14:37.891Z,1.93
2019-01-14T10:17:05.987Z,2.10
2019-01-14T10:19:33.640Z,1.80
2019-01-14T10:22:01.292Z,2.43
2019-01-14T10:24:28.995Z,2.00
2019-01-14T10:26:56.620Z,2.10
2019-01-14T10:29:24.308Z,2.00
2019-01-14T10:31:51.972Z,2.00
2019-01-14T10:34:19.660Z,2.07
2019-01-14T10:36:47.321Z,1.60
2019-01-14T10:39:14.968Z,2.27
2019-01-14T10:41:42.655Z,1.83
2019-01-14T10:44:10.315Z,1.93
2019-01-14T10:46:37.991Z,1.90
2019-01-14T10:49:06.956Z,1.87
2019-01-14T10:51:34.766Z,2.07
2019-01-14T10:54:02.418Z,1.60
2019-01-14T10:56:30.055Z,1.77
2019-01-14T10:58:57.916Z,2.10
2019-01-14T11:01:25.518Z,1.63
2019-01-14T11:03:53.317Z,1.87
2019-01-14T11:06:20.932Z,1.90
2019-01-14T11:08:48.691Z,1.67
2019-01-14T11:11:16.365Z,1.10
2019-01-14T11:13:44.156Z,1.40
2019-01-14T11:16:11.765Z,1.80
2019-01-14T11:18:47.359Z,1.50
2019-01-14T11:21:15.073Z,1.30
2019-01-14T11:23:42.852Z,1.73
2019-01-14T11:26:11.428Z,2.03
2019-01-14T11:28:39.118Z,1.90
2019-01-14T11:31:07.429Z,2.50
2019-01-14T11:33:38.647Z,2.27
2019-01-14T11:36:06.285Z,2.03
2019-01-14T11:38:48.102Z,2.00
2019-01-14T11:41:15.824Z,2.13
2019-01-14T11:43:43.503Z,2.30
2019-01-14T11:46:11.222Z,2.40
2019-01-14T11:48:38.832Z,2.40
2019-01-14T11:51:06.697Z,1.57
2019-01-14T11:53:34.373Z,2.17
2019-01-14T11:56:02.010Z,2.00
2019-01-14T11:58:29.702Z,1.87
2019-01-14T12:00:57.347Z,1.20
2019-01-14T12:03:25.147Z,1.40
2019-01-14T12:05:52.781Z,1.30
2019-01-14T12:08:21.075Z,1.80
2019-01-14T12:10:48.844Z,2.07
2019-01-14T12:13:16.543Z,1.80
2019-01-14T12:15:44.183Z,1.63
2019-01-14T12:18:11.833Z,1.70
2019-01-14T12:20:39.461Z,1.70
2019-01-14T12:23:07.228Z,1.30
2019-01-14T12:25:34.855Z,2.07
2019-01-14T12:28:02.483Z,1.93
2019-01-14T12:30:33.025Z,1.80
2019-01-14T12:33:00.873Z,2.10
2019-01-14T12:35:28.672Z,2.00
2019-01-14T12:37:56.287Z,1.80
2019-01-14T12:40:25.225Z,1.70
2019-01-14T12:42:52.959Z,1.60
2019-01-14T12:45:21.007Z,1.70
2019-01-14T12:47:48.637Z,2.20
2019-01-14T12:50:16.398Z,1.70
2019-01-14T12:52:44.047Z,1.87
2019-01-14T12:55:11.912Z,1.73
2019-01-14T12:57:39.626Z,1.80
2019-01-14T13:00:11.159Z,1.97
2019-01-14T13:02:38.801Z,1.40
2019-01-14T13:05:07.055Z,1.70
2019-01-14T13:07:34.671Z,1.60
2019-01-14T13:10:02.399Z,1.60
2019-01-14T13:12:30.080Z,2.03
2019-01-14T13:14:57.703Z,1.90
2019-01-14T13:17:25.396Z,2.33
2019-01-14T13:19:53.021Z,1.70
2019-01-14T13:22:20.663Z,1.90
2019-01-14T13:24:48.317Z,2.10
2019-01-14T13:27:15.984Z,1.70
2019-01-14T13:29:43.609Z,2.00
2019-01-14T13:32:11.261Z,1.80
2019-01-14T13:34:38.928Z,2.00
2019-01-14T13:37:06.613Z,2.20
2019-01-14T13:39:34.390Z,2.00
2019-01-14T13:42:02.233Z,1.83
2019-01-14T13:44:29.853Z,1.63
2019-01-14T13:46:57.488Z,1.80
2019-01-14T13:49:25.163Z,1.90
2019-01-14T13:51:53.120Z,1.73
2019-01-14T13:54:20.735Z,1.83
2019-01-14T13:56:48.355Z,2.00
2019-01-14T13:59:16.068Z,1.70
2019-01-14T14:01:43.723Z,1.20
2019-01-14T14:04:11.407Z,1.30
2019-01-14T14:06:39.044Z,1.67
2019-01-14T14:09:08.090Z,1.33
2019-01-14T14:11:35.738Z,1.70
2019-01-14T14:14:03.531Z,1.77
2019-01-14T14:16:31.195Z,1.77
2019-01-14T14:18:58.867Z,1.70
2019-01-14T14:21:26.521Z,1.60
2019-01-14T14:23:54.199Z,1.30
2019-01-14T14:26:21.895Z,1.80
2019-01-14T14:28:49.586Z,2.30
2019-01-14T14:31:17.303Z,2.20
2019-01-14T14:33:44.962Z,1.47
2019-01-14T14:36:12.612Z,2.03
2019-01-14T14:38:40.220Z,1.83
2019-01-14T14:41:07.939Z,1.50
2019-01-14T14:43:35.555Z,1.70
2019-01-14T14:46:03.273Z,1.80
2019-01-14T14:48:30.954Z,2.03
2019-01-14T14:50:58.626Z,1.40
2019-01-14T14:53:26.334Z,2.63
2019-01-14T14:55:53.991Z,1.47
2019-01-14T14:58:21.639Z,1.50
2019-01-14T15:00:49.348Z,1.80
2019-01-14T15:03:16.982Z,1.53
2019-01-14T15:05:44.652Z,2.47
2019-01-14T15:08:12.274Z,1.40
2019-01-14T15:10:39.924Z,1.60
2019-01-14T15:13:07.620Z,1.43
2019-01-14T15:15:35.254Z,1.27
2019-01-14T15:18:03.208Z,1.03
2019-01-14T15:20:30.856Z,1.83
2019-01-14T15:22:58.495Z,1.60
2019-01-14T15:25:26.160Z,1.70
2019-01-14T15:27:53.791Z,2.17
2019-01-14T15:30:23.629Z,1.60
2019-01-14T15:32:51.273Z,1.87
2019-01-14T15:35:19.153Z,1.50
2019-01-14T15:37:46.980Z,1.60
2019-01-14T15:40:15.124Z,1.40
2019-01-14T15:42:42.904Z,1.80
2019-01-14T15:45:12.551Z,2.10
2019-01-14T15:47:40.196Z,1.50
2019-01-14T15:50:08.621Z,1.63
2019-01-14T15:52:36.268Z,1.57
2019-01-14T15:55:04.855Z,1.60
2019-01-14T15:57:32.545Z,1.70
2019-01-14T16:00:00.185Z,1.70
2019-01-14T16:02:27.868Z,1.90
2019-01-14T16:04:55.510Z,2.00
2019-01-14T16:07:24.006Z,2.03
2019-01-14T16:09:51.679Z,2.13
2019-01-14T16:12:19.292Z,2.57
2019-01-14T16:14:46.962Z,2.30
2019-01-14T16:17:14.618Z,2.90
2019-01-14T16:19:42.235Z,2.20
2019-01-14T16:22:09.917Z,2.50
2019-01-14T16:24:37.568Z,2.20
2019-01-14T16:27:05.247Z,4.70
2019-01-14T16:29:32.946Z,4.33
2019-01-14T16:32:00.597Z,3.63
2019-01-14T16:34:28.306Z,3.63
2019-01-14T16:36:55.964Z,3.17
2019-01-14T16:39:23.692Z,3.80
2019-01-14T16:41:51.347Z,1.90
2019-01-14T16:44:18.999Z,2.40
2019-01-14T16:46:46.647Z,3.00
2019-01-14T16:49:14.326Z,2.20
2019-01-14T16:51:42.011Z,3.07
2019-01-14T16:54:09.669Z,2.60
2019-01-14T16:56:37.297Z,2.70
2019-01-14T16:59:04.952Z,2.90
2019-01-14T17:01:32.731Z,2.40
2019-01-14T17:04:00.420Z,2.87
2019-01-14T17:06:28.042Z,3.03
2019-01-14T17:08:55.764Z,3.10
2019-01-14T17:11:23.356Z,2.37
2019-01-14T17:13:51.029Z,2.33
2019-01-14T17:16:18.671Z,3.23
2019-01-14T17:18:46.338Z,2.33
2019-01-14T17:21:13.971Z,2.00
2019-01-14T17:23:41.646Z,2.23
2019-01-14T17:26:09.297Z,2.53
2019-01-14T17:28:37.074Z,2.33
2019-01-14T17:31:04.748Z,2.40
2019-01-14T17:33:32.408Z,2.47
2019-01-14T17:36:00.062Z,2.37
2019-01-14T17:38:27.682Z,2.40
2019-01-14T17:40:55.341Z,2.47
2019-01-14T17:43:22.964Z,2.93
2019-01-14T17:45:50.691Z,3.97
2019-01-14T17:48:18.359Z,2.33
2019-01-14T17:50:46.056Z,2.53
2019-01-14T17:53:13.722Z,2.30
2019-01-14T17:55:41.373Z,2.43
2019-01-14T17:58:08.983Z,2.87
2019-01-14T18:00:36.749Z,2.93
2019-01-14T18:03:04.548Z,2.63
2019-01-14T18:05:32.359Z,2.67
2019-01-14T18:07:59.977Z,2.57
2019-01-14T18:10:27.601Z,2.10
2019-01-14T18:12:55.264Z,2.20
2019-01-14T18:15:22.880Z,2.60
2019-01-14T18:17:50.720Z,2.37
2019-01-14T18:20:19.336Z,2.27
2019-01-14T18:22:46.939Z,2.87
2019-01-14T18:25:14.749Z,2.80
2019-01-14T18:27:42.389Z,3.23
2019-01-14T18:30:12.973Z,3.00
2019-01-14T18:32:40.738Z,2.83
2019-01-14T18:35:08.456Z,3.97
2019-01-14T18:37:36.121Z,3.20
2019-01-14T18:40:05.588Z,3.93
2019-01-14T18:42:33.268Z,2.80
2019-01-14T18:45:00.908Z,2.63
2019-01-14T18:47:28.655Z,2.50
2019-01-14T18:49:56.303Z,2.97
2019-01-14T18:52:23.964Z,2.37
2019-01-14T18:54:51.693Z,2.33
2019-01-14T18:57:19.358Z,2.43
2019-01-14T18:59:46.984Z,2.17
2019-01-14T19:02:14.675Z,2.67
2019-01-14T19:04:42.387Z,2.33
2019-01-14T19:07:10.035Z,2.73
2019-01-14T19:09:37.741Z,2.57
2019-01-14T19:12:05.381Z,2.50
2019-01-14T19:14:33.043Z,2.40
2019-01-14T19:17:00.703Z,2.30
2019-01-14T19:19:28.339Z,2.77
2019-01-14T19:21:55.999Z,2.97
2019-01-14T19:24:23.646Z,2.90
2019-01-14T19:26:51.342Z,2.90
2019-01-14T19:29:19.001Z,3.47
2019-01-14T19:31:46.630Z,3.17
2019-01-14T19:34:14.314Z,3.37
2019-01-14T19:36:41.998Z,2.90
2019-01-14T19:39:09.950Z,2.47
2019-01-14T19:41:37.636Z,2.77
2019-01-14T19:44:05.315Z,2.70
2019-01-14T19:46:32.985Z,3.67
2019-01-14T19:49:00.609Z,2.50
2019-01-14T19:51:28.370Z,3.03
2019-01-14T19:53:56.006Z,2.37
2019-01-14T19:56:23.685Z,2.30
2019-01-14T19:58:51.367Z,2.27
2019-01-14T20:01:19.028Z,2.20
2019-01-14T20:03:46.712Z,2.70
2019-01-14T20:06:14.431Z,2.90
2019-01-14T20:08:42.127Z,2.80
2019-01-14T20:11:09.823Z,3.47
2019-01-14T20:13:37.545Z,2.37
2019-01-14T20:16:05.339Z,2.53
2019-01-14T20:18:32.953Z,2.43
2019-01-14T20:21:00.603Z,2.93
2019-01-14T20:23:28.300Z,2.43
2019-01-14T20:25:55.958Z,2.17
2019-01-14T20:28:23.633Z,2.80
2019-01-14T20:30:51.257Z,2.57
2019-01-14T20:33:19.654Z,2.90
2019-01-14T20:35:47.372Z,2.63
2019-01-14T20:38:14.984Z,2.43
2019-01-14T20:40:42.652Z,2.67
2019-01-14T20:43:10.302Z,2.97
2019-01-14T20:45:37.993Z,2.37
2019-01-14T20:48:06.552Z,3.17
2019-01-14T20:50:34.234Z,2.60
2019-01-14T20:53:01.847Z,3.13
2019-01-14T20:55:29.515Z,3.10
2019-01-14T20:57:57.155Z,2.70
2019-01-14T21:00:25.059Z,2.97
2019-01-14T21:02:53.278Z,3.73
2019-01-14T21:05:21.790Z,3.13
2019-01-14T21:07:49.507Z,2.40
2019-01-14T21:10:17.520Z,2.70
2019-01-14T21:12:45.197Z,2.30
2019-01-14T21:15:13.043Z,2.40
2019-01-14T21:17:40.715Z,2.80
2019-01-14T21:20:14.559Z,2.47
2019-01-14T21:22:42.278Z,2.17
2019-01-14T21:25:10.147Z,2.70
2019-01-14T21:27:37.890Z,3.33
2019-01-14T21:30:07.578Z,2.30
2019-01-14T21:32:35.318Z,3.20
2019-01-14T21:35:03.501Z,2.80
2019-01-14T21:37:31.203Z,2.50
2019-01-14T21:39:58.911Z,3.63
2019-01-14T21:42:26.600Z,1.93
2019-01-14T21:44:54.270Z,2.57
2019-01-14T21:47:21.980Z,3.40
2019-01-14T21:49:49.647Z,3.03
2019-01-14T21:52:17.452Z,2.67
2019-01-14T21:54:45.141Z,3.53
2019-01-14T21:57:12.867Z,2.57
2019-01-14T21:59:40.527Z,2.80
2019-01-14T22:02:08.172Z,3.23
2019-01-14T22:04:35.921Z,2.27
2019-01-14T22:07:03.771Z,2.47
2019-01-14T22:09:31.438Z,2.87
2019-01-14T22:11:59.202Z,2.87
2019-01-14T22:14:26.848Z,2.63
2019-01-14T22:16:54.512Z,3.07
2019-01-14T22:19:22.234Z,1.97
2019-01-14T22:21:49.909Z,3.07
2019-01-14T22:24:17.618Z,3.00
2019-01-14T22:26:45.336Z,3.33
2019-01-14T22:29:13.011Z,3.50
2019-01-14T22:31:40.735Z,2.83
2019-01-14T22:34:08.437Z,3.13
2019-01-14T22:36:36.149Z,2.87
2019-01-14T22:39:06.880Z,3.40
2019-01-14T22:41:34.582Z,2.80
2019-01-14T22:44:02.273Z,3.63
2019-01-14T22:46:30.100Z,2.60
2019-01-14T22:48:57.757Z,2.90
2019-01-14T22:51:25.391Z,3.17
2019-01-14T22:53:53.003Z,3.73
2019-01-14T22:56:20.676Z,3.53
2019-01-14T22:58:48.371Z,3.53
2019-01-14T23:01:42.546Z,2.63
2019-01-14T23:04:10.221Z,3.07
2019-01-14T23:06:37.867Z,2.40
2019-01-14T23:09:07.819Z,3.80
2019-01-14T23:11:35.452Z,3.33
2019-01-14T23:14:03.739Z,3.33
2019-01-14T23:16:31.356Z,3.97
2019-01-14T23:18:58.994Z,3.07
2019-01-14T23:21:26.682Z,3.27
2019-01-14T23:23:54.296Z,3.03
2019-01-14T23:26:21.994Z,3.03
2019-01-14T23:28:49.666Z,3.40
2019-01-14T23:31:17.332Z,3.03
2019-01-14T23:33:44.972Z,2.60
2019-01-14T23:36:12.621Z,2.90
2019-01-14T23:38:40.257Z,2.80
2019-01-14T23:41:07.955Z,3.33
2019-01-14T23:43:35.554Z,4.43
2019-01-14T23:46:03.416Z,2.90
2019-01-14T23:48:31.042Z,3.23
2019-01-14T23:50:58.687Z,3.47
2019-01-14T23:53:26.394Z,3.83
2019-01-14T23:55:54.034Z,2.90
2019-01-14T23:58:21.719Z,3.27
